createdAt,value
2022-12-04T00:05:31.366Z,0.9
2022-12-04T00:33:43.586Z,0.7
2022-12-04T01:02:31.428Z,0.71
2022-12-04T01:31:17.284Z,0.61
2022-12-04T01:59:55.801Z,0.32
2022-12-04T02:28:32.498Z,0.45
2022-12-04T02:57:28.919Z,0.48
2022-12-04T03:26:21.737Z,0.8
2022-12-04T03:55:15.950Z,1.05
2022-12-04T04:24:06.550Z,1.04
2022-12-04T04:52:31.566Z,1.18
2022-12-04T05:20:47.884Z,1.49
2022-12-04T05:49:01.540Z,1.58
2022-12-04T06:17:17.936Z,1.44
2022-12-04T06:45:26.690Z,1.84
2022-12-04T07:13:45.400Z,2
2022-12-04T07:42:27.709Z,1.98
2022-12-04T08:10:46.766Z,2.27
2022-12-04T08:38:51.510Z,2.59
2022-12-04T09:07:06.986Z,2.85
2022-12-04T09:35:23.456Z,3.09
2022-12-04T10:03:44.324Z,3.3
2022-12-04T10:31:52.879Z,3.48
2022-12-04T10:59:57.711Z,3.52
2022-12-04T11:28:44.288Z,3.51
2022-12-04T11:56:53.161Z,3.71
2022-12-04T12:25:52.723Z,3.86
2022-12-04T12:54:04.394Z,4.12
2022-12-04T13:22:52.243Z,4.11
2022-12-04T13:51:43.775Z,2.98
2022-12-04T14:20:46.100Z,2.98
2022-12-04T14:49:46.327Z,3.26
2022-12-04T15:18:41.879Z,3.36
2022-12-04T15:47:40.498Z,3.22
2022-12-04T16:15:57.272Z,3.31
2022-12-04T16:44:08.396Z,3.17
2022-12-04T17:12:30.398Z,3.24
2022-12-04T17:40:32.872Z,3.31
2022-12-04T18:08:50.743Z,3.27
2022-12-04T18:36:56.672Z,3.34
2022-12-04T19:05:12.216Z,3.29
2022-12-04T19:33:30.147Z,3.5
2022-12-04T20:02:31.184Z,3.43
2022-12-04T20:31:11.286Z,3.49
2022-12-04T20:59:53.186Z,3.41
2022-12-04T21:28:43.903Z,3.33
2022-12-04T21:57:41.699Z,3.33
2022-12-04T22:26:33.307Z,3.29
2022-12-04T22:55:22.162Z,3.05
2022-12-04T23:24:14.986Z,3.1
2022-12-04T23:53:04.938Z,3.09
